Time;durP1;ratioP1;P1;durP2;ratioP2;P2;SDS_P1;SDS_P2;PMS_P1;PMS_P2;Temp;Humidity;BMP_temperature;BMP_pressure;BME280_temperature;BME280_humidity;BME280_pressure;Samples;Min_cycle;Max_cycle;Signal;HPM_P1;HPM_P2
2022/04/01 05:45:56;;;;;;;4.25;1.50;;;;;;;;;;5674779;23;20131;-86
2022/04/01 05:48:25;;;;;;;5.88;1.40;;;;;;;;;;4970918;28;20039;-85
2022/04/01 05:50:53;;;;;;;6.85;1.50;;;;;;;;;;4966364;28;20179;-85
2022/04/01 05:53:21;;;;;;;5.32;1.42;;;;;;;;;;4969525;28;20074;-84
2022/04/01 05:55:51;;;;;;;6.18;2.95;;;;;;;;;;4962723;28;20047;-85
2022/04/01 05:58:17;;;;;;;4.07;1.38;;;;;;;;;;4951685;28;20043;-85
2022/04/01 06:01:13;;;;;;;6.00;1.23;;;;;;;;;;4970256;28;20093;-83
2022/04/01 06:03:52;;;;;;;5.63;1.38;;;;;;;;;;4966459;28;20138;-85
2022/04/01 06:06:31;;;;;;;;;;;;;;;;;;4969873;28;20065;-85
2022/04/01 06:09:04;;;;;;;;;;;;;;;;;;4957347;28;19922;-84
2022/04/01 06:11:50;;;;;;;8.15;4.07;;;;;;;;;;4955188;28;20378;-85
2022/04/01 06:14:34;;;;;;;5.43;3.30;;;;;;;;;;4973595;28;20507;-85
2022/04/01 06:17:08;;;;;;;5.70;1.75;;;;;;;;;;4973561;28;20500;-85
2022/04/01 06:19:43;;;;;;;8.73;2.40;;;;;;;;;;4969736;28;20073;-86
2022/04/01 06:22:12;;;;;;;8.32;2.35;;;;;;;;;;4970041;28;20042;-85
2022/04/01 06:24:51;;;;;;;4.60;3.03;;;;;;;;;;4969131;28;20523;-86
2022/04/01 06:27:27;;;;;;;6.10;1.92;;;;;;;;;;4970447;28;20499;-85
2022/04/01 06:30:06;;;;;;;4.68;1.70;;;;;;;;;;4954767;28;20057;-85
2022/04/01 06:33:07;;;;;;;8.13;1.20;;;;;;;;;;4969226;28;20109;-85
2022/04/01 06:35:38;;;;;;;4.88;1.50;;;;;;;;;;4971955;28;20116;-85
2022/04/01 06:38:12;;;;;;;7.60;1.17;;;;;;;;;;4970196;28;20051;-83
2022/04/01 06:40:55;;;;;;;6.03;1.02;;;;;;;;;;4968873;28;20475;-85
2022/04/01 06:43:22;;;;;;;2.95;1.00;;;;;;;;;;4967312;28;20047;-86
2022/04/01 06:45:49;;;;;;;3.85;1.20;;;;;;;;;;4906503;28;1874626;-84
2022/04/01 06:48:16;;;;;;;9.13;1.80;;;;;;;;;;4971109;28;20451;-86
2022/04/01 06:50:49;;;;;;;8.50;1.38;;;;;;;;;;4971559;28;20086;-86
2022/04/01 06:53:17;;;;;;;3.85;1.15;;;;;;;;;;4971725;28;20133;-83
2022/04/01 06:55:45;;;;;;;3.10;1.00;;;;;;;;;;4971195;28;20533;-84
2022/04/01 06:58:12;;;;;;;6.80;1.08;;;;;;;;;;4968436;28;20112;-83
2022/04/01 07:00:41;;;;;;;3.13;1.08;;;;;;;;;;4971369;28;20051;-83
2022/04/01 07:03:08;;;;;;;7.80;1.00;;;;;;;;;;4969269;28;20504;-83
2022/04/01 07:05:37;;;;;;;3.63;1.00;;;;;;;;;;4971237;28;20537;-84
2022/04/01 07:08:05;;;;;;;5.47;1.10;;;;;;;;;;4972927;28;20271;-84
2022/04/01 07:10:31;;;;;;;8.77;1.30;;;;;;;;;;4969329;28;20050;-85
2022/04/01 07:12:59;;;;;;;3.47;0.90;;;;;;;;;;4966741;28;20051;-86
2022/04/01 07:15:26;;;;;;;5.18;1.17;;;;;;;;;;4966776;28;20066;-84
2022/04/01 07:17:53;;;;;;;4.40;1.13;;;;;;;;;;4967486;28;20125;-87
2022/04/01 07:20:22;;;;;;;4.15;1.00;;;;;;;;;;4967250;28;20145;-86
2022/04/01 07:22:51;;;;;;;6.32;1.20;;;;;;;;;;4958395;28;20145;-85
2022/04/01 07:25:20;;;;;;;4.13;1.17;;;;;;;;;;4964500;28;20054;-85
2022/04/01 07:27:47;;;;;;;;;;;;;;;;;;4964809;28;20046;-85
2022/04/01 07:30:14;;;;;;;6.43;1.08;;;;;;;;;;4964136;28;19953;-86
2022/04/01 07:32:40;;;;;;;3.88;0.90;;;;;;;;;;4964143;28;20511;-87
2022/04/01 07:35:11;;;;;;;6.35;0.95;;;;;;;;;;4963514;28;20062;-84
2022/04/01 07:37:38;;;;;;;5.45;1.00;;;;;;;;;;4964211;28;20556;-84
2022/04/01 07:40:18;;;;;;;5.35;1.20;;;;;;;;;;4961445;28;20388;-84
2022/04/01 07:42:45;;;;;;;5.90;0.80;;;;;;;;;;4963471;28;20051;-84
2022/04/01 07:45:12;;;;;;;6.00;1.25;;;;;;;;;;4962837;28;20101;-84
2022/04/01 07:47:38;;;;;;;4.72;1.05;;;;;;;;;;4963982;28;20058;-85
2022/04/01 07:50:07;;;;;;;7.25;1.02;;;;;;;;;;4963537;28;20132;-83
2022/04/01 07:52:33;;;;;;;4.15;1.02;;;;;;;;;;4963300;28;20098;-84
2022/04/01 07:55:01;;;;;;;5.18;1.60;;;;;;;;;;4962744;28;20093;-86
2022/04/01 07:57:27;;;;;;;6.70;1.17;;;;;;;;;;4962931;28;20074;-86
2022/04/01 07:59:54;;;;;;;6.70;1.48;;;;;;;;;;4961862;28;20660;-86
2022/04/01 08:02:20;;;;;;;8.00;1.77;;;;;;;;;;4963436;28;20047;-86
2022/04/01 08:04:47;;;;;;;4.57;1.95;;;;;;;;;;4954663;28;20047;-86
2022/04/01 08:07:15;;;;;;;5.28;1.40;;;;;;;;;;4962927;28;20117;-86
2022/04/01 08:09:41;;;;;;;6.13;1.07;;;;;;;;;;4963681;28;20109;-88
2022/04/01 08:12:08;;;;;;;5.28;1.05;;;;;;;;;;4963250;28;20093;-85
2022/04/01 08:14:37;;;;;;;10.00;3.08;;;;;;;;;;4964506;28;20519;-86
2022/04/01 08:17:05;;;;;;;4.65;1.08;;;;;;;;;;4963586;28;20054;-86
2022/04/01 08:19:32;;;;;;;4.05;0.85;;;;;;;;;;4963626;28;20051;-87
2022/04/01 08:21:59;;;;;;;5.80;0.68;;;;;;;;;;4964499;28;20042;-85
2022/04/01 08:24:26;;;;;;;8.57;1.20;;;;;;;;;;4963281;28;20055;-85
2022/04/01 08:26:53;;;;;;;4.00;0.98;;;;;;;;;;4962128;28;20134;-87
2022/04/01 08:29:19;;;;;;;5.25;0.82;;;;;;;;;;4963068;28;20078;-84
2022/04/01 08:31:46;;;;;;;4.75;0.90;;;;;;;;;;4962624;28;20055;-87
2022/04/01 08:34:13;;;;;;;7.03;1.00;;;;;;;;;;4962672;28;20085;-87
2022/04/01 08:36:39;;;;;;;5.38;1.10;;;;;;;;;;4962864;28;20137;-86
2022/04/01 08:39:06;;;;;;;4.32;0.60;;;;;;;;;;4962228;28;20542;-85
2022/04/01 08:41:33;;;;;;;4.15;0.73;;;;;;;;;;4962699;28;20058;-85
2022/04/01 08:43:59;;;;;;;6.25;0.88;;;;;;;;;;4963024;28;20047;-86
2022/04/01 08:46:26;;;;;;;8.55;0.90;;;;;;;;;;4961802;28;20559;-85
2022/04/01 08:48:57;;;;;;;6.00;1.02;;;;;;;;;;4958165;28;20055;-86
2022/04/01 08:51:26;;;;;;;4.63;0.88;;;;;;;;;;4963074;28;20078;-86
2022/04/01 08:53:52;;;;;;;5.90;0.95;;;;;;;;;;4963088;28;20082;-85
2022/04/01 08:56:20;;;;;;;3.10;0.60;;;;;;;;;;4962143;28;20094;-84
2022/04/01 08:58:47;;;;;;;4.22;0.60;;;;;;;;;;4962402;28;20153;-87
2022/04/01 09:01:14;;;;;;;4.50;0.80;;;;;;;;;;4961801;28;20078;-87
2022/04/01 09:03:42;;;;;;;5.05;0.80;;;;;;;;;;4963209;28;20109;-86
2022/04/01 09:06:09;;;;;;;2.85;0.68;;;;;;;;;;4962238;28;20043;-86
2022/04/01 09:08:40;;;;;;;2.78;0.73;;;;;;;;;;4962696;28;20082;-85
2022/04/01 09:11:10;;;;;;;2.95;1.13;;;;;;;;;;4962745;28;20050;-86
2022/04/01 09:13:42;;;;;;;5.57;0.80;;;;;;;;;;4962951;28;20079;-87
2022/04/01 09:16:26;;;;;;;3.78;0.80;;;;;;;;;;4962130;28;20070;-87
2022/04/01 09:18:57;;;;;;;3.75;1.00;;;;;;;;;;4960326;28;20059;-87
2022/04/01 09:21:27;;;;;;;5.70;0.90;;;;;;;;;;4962071;28;20086;-86
2022/04/01 09:23:54;;;;;;;3.92;0.70;;;;;;;;;;4961175;28;20071;-86
2022/04/01 09:26:29;;;;;;;5.32;0.82;;;;;;;;;;4960240;28;20047;-86
2022/04/01 09:28:57;;;;;;;3.30;0.63;;;;;;;;;;4963412;28;20387;-85
2022/04/01 09:31:32;;;;;;;4.45;0.98;;;;;;;;;;4963372;28;20055;-84
2022/04/01 09:34:06;;;;;;;;;;;;;;;;;;4966589;28;20050;-85
2022/04/01 09:36:36;;;;;;;6.65;1.33;;;;;;;;;;4961580;28;19926;-85
2022/04/01 09:39:07;;;;;;;3.72;0.40;;;;;;;;;;4965231;28;20050;-86
2022/04/01 09:41:47;;;;;;;4.80;0.63;;;;;;;;;;4961821;28;20078;-87
2022/04/01 09:44:29;;;;;;;3.83;0.57;;;;;;;;;;4968652;28;20499;-88
2022/04/01 09:47:02;;;;;;;6.45;1.00;;;;;;;;;;4966741;28;20055;-89
2022/04/01 09:49:42;;;;;;;2.30;0.60;;;;;;;;;;4965254;28;20043;-87
2022/04/01 09:52:10;;;;;;;6.47;0.70;;;;;;;;;;4965356;28;20073;-86
2022/04/01 09:54:54;;;;;;;3.65;0.63;;;;;;;;;;4968021;28;20050;-88
2022/04/01 09:57:24;;;;;;;3.60;0.60;;;;;;;;;;4966746;28;20050;-85
2022/04/01 09:59:53;;;;;;;3.83;0.68;;;;;;;;;;4959065;28;20181;-87
2022/04/01 10:02:20;;;;;;;4.73;0.50;;;;;;;;;;4968742;28;20046;-87
2022/04/01 10:04:47;;;;;;;1.73;0.50;;;;;;;;;;4968268;28;20047;-87
2022/04/01 10:07:14;;;;;;;6.53;0.90;;;;;;;;;;4965929;28;20078;-87
2022/04/01 10:09:43;;;;;;;3.80;0.77;;;;;;;;;;4967940;28;20087;-87
2022/04/01 10:12:31;;;;;;;2.15;0.70;;;;;;;;;;4968393;28;20885;-87
2022/04/01 10:15:00;;;;;;;5.25;1.00;;;;;;;;;;4967824;28;20101;-87
2022/04/01 10:17:47;;;;;;;;;;;;;;;;;;4962954;28;20055;-88
2022/04/01 10:20:17;;;;;;;3.67;0.73;;;;;;;;;;4960637;28;20375;-86
2022/04/01 10:22:45;;;;;;;5.15;1.13;;;;;;;;;;4951032;28;20051;-88
2022/04/01 10:25:20;;;;;;;4.25;1.50;;;;;;;;;;4968091;28;20062;-87
2022/04/01 10:27:53;;;;;;;3.67;0.60;;;;;;;;;;4967588;28;20086;-87
2022/04/01 10:30:24;;;;;;;4.10;0.95;;;;;;;;;;4966860;28;20111;-86
2022/04/01 10:32:51;;;;;;;2.55;0.70;;;;;;;;;;4967046;28;20046;-87
2022/04/01 10:35:26;;;;;;;4.57;0.73;;;;;;;;;;4950671;28;20089;-86
2022/04/01 10:38:15;;;;;;;2.65;0.50;;;;;;;;;;4966576;28;20431;-87
2022/04/01 10:40:45;;;;;;;6.65;0.98;;;;;;;;;;4967265;28;20491;-88
2022/04/01 10:43:15;;;;;;;2.38;0.70;;;;;;;;;;4965260;28;20054;-87
2022/04/01 10:46:06;;;;;;;3.65;0.60;;;;;;;;;;4965851;28;20062;-86
2022/04/01 10:51:37;;;;;;;4.70;0.60;;;;;;;;;;4966523;28;20051;-84
2022/04/01 10:54:06;;;;;;;2.70;0.50;;;;;;;;;;4967131;28;20047;-85
2022/04/01 10:56:35;;;;;;;4.30;0.90;;;;;;;;;;4966885;28;20061;-85
2022/04/01 10:59:08;;;;;;;;;;;;;;;;;;4967658;28;20070;-85
2022/04/01 11:01:53;;;;;;;3.70;0.80;;;;;;;;;;4966572;28;19922;-88
2022/04/01 11:04:19;;;;;;;1.65;0.50;;;;;;;;;;4966142;28;20495;-87
2022/04/01 11:06:53;;;;;;;3.63;0.70;;;;;;;;;;4966382;28;20511;-88
2022/04/01 11:09:33;;;;;;;4.65;0.85;;;;;;;;;;4966303;28;20078;-87
2022/04/01 11:12:14;;;;;;;4.30;0.93;;;;;;;;;;4949332;28;20157;-87
2022/04/01 11:14:54;;;;;;;7.15;1.30;;;;;;;;;;4949804;28;20051;-86
2022/04/01 11:17:22;;;;;;;1.98;0.65;;;;;;;;;;4967061;28;20109;-86
2022/04/01 11:20:08;;;;;;;5.65;0.98;;;;;;;;;;4966841;28;20058;-88
2022/04/01 11:22:45;;;;;;;1.98;0.70;;;;;;;;;;4966369;28;20075;-89
2022/04/01 11:25:14;;;;;;;4.32;1.20;;;;;;;;;;4966306;28;20385;-88
2022/04/01 11:27:56;;;;;;;1.85;0.70;;;;;;;;;;4949653;28;20050;-89
2022/04/01 11:30:24;;;;;;;1.15;0.60;;;;;;;;;;4958478;28;20078;-89
2022/04/01 11:33:01;;;;;;;5.65;0.68;;;;;;;;;;4966736;28;20042;-87
2022/04/01 11:35:35;;;;;;;3.85;0.85;;;;;;;;;;4966326;28;20057;-88
2022/04/01 11:38:03;;;;;;;1.50;0.47;;;;;;;;;;4967845;28;20038;-88
2022/04/01 11:40:32;;;;;;;2.03;0.50;;;;;;;;;;4967390;28;20502;-87
2022/04/01 11:43:02;;;;;;;;;;;;;;;;;;4967186;28;20533;-86
2022/04/01 11:45:31;;;;;;;4.50;0.60;;;;;;;;;;4965490;28;19930;-86
2022/04/01 11:47:58;;;;;;;4.78;0.82;;;;;;;;;;4966603;28;20047;-87
2022/04/01 11:50:25;;;;;;;2.83;0.93;;;;;;;;;;4966855;28;20511;-87
2022/04/01 11:52:56;;;;;;;4.25;0.73;;;;;;;;;;4950399;28;20396;-87
2022/04/01 11:55:25;;;;;;;1.73;0.57;;;;;;;;;;4966822;28;20500;-87
2022/04/01 11:57:54;;;;;;;2.45;0.60;;;;;;;;;;4966665;28;20063;-90
2022/04/01 12:00:26;;;;;;;4.22;1.13;;;;;;;;;;4965286;28;20074;-89
2022/04/01 12:02:54;;;;;;;4.03;0.80;;;;;;;;;;4966621;28;20058;-88
2022/04/01 12:05:22;;;;;;;2.88;0.90;;;;;;;;;;4962264;28;20059;-89
2022/04/01 12:10:50;;;;;;;3.97;0.55;;;;;;;;;;4964953;28;20050;-89
2022/04/01 12:13:16;;;;;;;3.03;0.60;;;;;;;;;;4947894;28;20627;-86
2022/04/01 12:15:45;;;;;;;2.65;0.68;;;;;;;;;;4960488;28;20475;-88
2022/04/01 12:18:18;;;;;;;1.50;0.40;;;;;;;;;;4966912;28;20043;-88
2022/04/01 12:20:46;;;;;;;3.03;0.32;;;;;;;;;;4951146;28;20039;-89
2022/04/01 12:23:16;;;;;;;1.52;0.40;;;;;;;;;;4969399;28;20058;-88
2022/04/01 12:25:44;;;;;;;3.13;0.60;;;;;;;;;;4967748;28;20050;-89
2022/04/01 12:28:15;;;;;;;2.40;0.40;;;;;;;;;;4968518;28;20187;-89
2022/04/01 12:30:54;;;;;;;1.85;0.52;;;;;;;;;;4970452;28;20370;-89
2022/04/01 12:33:29;;;;;;;3.25;0.90;;;;;;;;;;4959265;28;20496;-90
2022/04/01 12:35:58;;;;;;;4.65;0.90;;;;;;;;;;4956194;28;20140;-89
2022/04/01 12:38:27;;;;;;;1.98;0.47;;;;;;;;;;4962521;28;20097;-88
2022/04/01 12:40:59;;;;;;;5.75;1.50;;;;;;;;;;4962832;28;20578;-88
2022/04/01 12:43:45;;;;;;;1.27;0.43;;;;;;;;;;4962764;28;20074;-88
2022/04/01 12:46:29;;;;;;;3.88;0.98;;;;;;;;;;4965623;28;20155;-89
2022/04/01 12:48:58;;;;;;;3.85;0.60;;;;;;;;;;4959656;28;20046;-88
2022/04/01 12:51:24;;;;;;;;;;;;;;;;;;4959870;28;20125;-88
2022/04/01 12:54:03;;;;;;;5.20;0.80;;;;;;;;;;4960215;28;19926;-88
2022/04/01 12:56:40;;;;;;;3.20;0.50;;;;;;;;;;4962496;28;20112;-88
2022/04/01 12:59:09;;;;;;;6.70;0.95;;;;;;;;;;4965903;28;20621;-88
2022/04/01 13:01:39;;;;;;;5.47;1.00;;;;;;;;;;4964748;28;20582;-89
2022/04/01 13:04:08;;;;;;;4.63;0.63;;;;;;;;;;4965154;28;20055;-87
2022/04/01 13:06:35;;;;;;;;;;;;;;;;;;4965357;28;20078;-89
2022/04/01 13:09:09;;;;;;;1.65;0.32;;;;;;;;;;4951208;28;20746;-88
2022/04/01 13:11:44;;;;;;;1.75;0.47;;;;;;;;;;4951162;28;20078;-88
2022/04/01 13:14:22;;;;;;;3.33;0.60;;;;;;;;;;4968053;28;20113;-87
2022/04/01 13:16:50;;;;;;;4.93;1.33;;;;;;;;;;4967053;28;20058;-86
2022/04/01 13:19:30;;;;;;;2.90;0.90;;;;;;;;;;4965849;28;20299;-86
2022/04/01 13:22:03;;;;;;;5.78;0.73;;;;;;;;;;4966044;28;20051;-87
2022/04/01 13:24:56;;;;;;;4.30;0.70;;;;;;;;;;4966078;28;20126;-87
2022/04/01 13:27:23;;;;;;;4.15;0.80;;;;;;;;;;4964204;28;20492;-87
2022/04/01 13:29:50;;;;;;;6.55;0.90;;;;;;;;;;4966761;28;20066;-87
2022/04/01 13:32:17;;;;;;;1.92;0.60;;;;;;;;;;4966771;28;20059;-88
2022/04/01 13:34:47;;;;;;;4.50;1.00;;;;;;;;;;4966890;28;20053;-88
2022/04/01 13:37:15;;;;;;;3.83;1.10;;;;;;;;;;4965617;28;20047;-86
2022/04/01 13:39:42;;;;;;;5.25;1.15;;;;;;;;;;4966850;28;21424;-86
2022/04/01 13:42:09;;;;;;;13.43;3.53;;;;;;;;;;4965880;28;20102;-84
2022/04/01 13:44:36;;;;;;;4.75;0.80;;;;;;;;;;4966461;28;20078;-87
2022/04/01 13:47:03;;;;;;;2.50;0.95;;;;;;;;;;4968325;28;20078;-88
2022/04/01 13:49:30;;;;;;;4.13;1.00;;;;;;;;;;4967883;28;20476;-87
2022/04/01 13:51:57;;;;;;;3.08;0.80;;;;;;;;;;4966949;28;20051;-88
2022/04/01 13:54:24;;;;;;;4.57;0.60;;;;;;;;;;4968237;28;20456;-89
2022/04/01 13:56:51;;;;;;;3.65;0.80;;;;;;;;;;4969255;28;20074;-89
2022/04/01 13:59:18;;;;;;;3.15;0.60;;;;;;;;;;4969072;28;20085;-89
2022/04/01 14:01:45;;;;;;;3.20;0.70;;;;;;;;;;4967721;28;20047;-88
2022/04/01 14:04:12;;;;;;;4.13;0.63;;;;;;;;;;4967417;28;20053;-88
2022/04/01 14:06:39;;;;;;;5.97;0.70;;;;;;;;;;4966899;28;20050;-89
2022/04/01 14:09:08;;;;;;;2.92;0.73;;;;;;;;;;4967900;28;20097;-90
2022/04/01 14:11:55;;;;;;;5.88;0.73;;;;;;;;;;4968872;28;20043;-89
2022/04/01 14:14:21;;;;;;;4.90;1.30;;;;;;;;;;4968924;28;20566;-90
2022/04/01 14:16:48;;;;;;;3.47;0.80;;;;;;;;;;4968093;28;20118;-90
2022/04/01 14:19:15;;;;;;;3.63;0.98;;;;;;;;;;4967301;28;20141;-89
2022/04/01 14:21:41;;;;;;;2.50;0.80;;;;;;;;;;4968670;28;20074;-89
2022/04/01 14:24:08;;;;;;;3.83;0.60;;;;;;;;;;4963641;28;20046;-89
2022/04/01 14:26:35;;;;;;;5.97;1.20;;;;;;;;;;4970502;28;20050;-90
2022/04/01 14:32:06;;;;;;;5.28;0.80;;;;;;;;;;4968338;28;20594;-89
2022/04/01 14:34:40;;;;;;;3.65;0.63;;;;;;;;;;4967803;28;20047;-90
2022/04/01 14:37:08;;;;;;;5.03;0.75;;;;;;;;;;4969305;28;20057;-89
2022/04/01 14:39:35;;;;;;;2.90;0.80;;;;;;;;;;4966896;28;20051;-90
2022/04/01 14:42:02;;;;;;;3.33;0.70;;;;;;;;;;4967899;28;20372;-88
2022/04/01 14:44:29;;;;;;;4.53;0.98;;;;;;;;;;4968280;28;20066;-90
2022/04/01 14:46:56;;;;;;;4.22;0.60;;;;;;;;;;4971086;28;20054;-90
2022/04/01 14:49:23;;;;;;;4.97;0.50;;;;;;;;;;4970373;28;20055;-88
2022/04/01 14:51:51;;;;;;;5.40;0.70;;;;;;;;;;4966395;28;20503;-89
2022/04/01 14:54:17;;;;;;;3.55;1.10;;;;;;;;;;4968367;28;20046;-88
2022/04/01 14:56:44;;;;;;;5.78;0.77;;;;;;;;;;4972668;28;20330;-87
2022/04/01 14:59:11;;;;;;;2.97;1.05;;;;;;;;;;4968490;28;20523;-87
2022/04/01 15:01:39;;;;;;;3.47;0.70;;;;;;;;;;4966263;28;20511;-90
2022/04/01 15:04:11;;;;;;;3.72;0.60;;;;;;;;;;4966542;28;20101;-90
2022/04/01 15:06:41;;;;;;;3.47;0.60;;;;;;;;;;4965516;28;20118;-89
2022/04/01 15:09:08;;;;;;;4.13;0.82;;;;;;;;;;4966838;28;20050;-88
2022/04/01 15:11:34;;;;;;;4.70;0.80;;;;;;;;;;4967834;28;20066;-88
2022/04/01 15:14:01;;;;;;;5.60;0.95;;;;;;;;;;4967899;28;20055;-90
2022/04/01 15:16:28;;;;;;;3.53;0.70;;;;;;;;;;4966481;28;20062;-89
2022/04/01 15:18:54;;;;;;;4.57;0.95;;;;;;;;;;4966621;28;20055;-89
2022/04/01 15:21:22;;;;;;;3.08;0.90;;;;;;;;;;4966864;28;20042;-88
2022/04/01 15:23:49;;;;;;;6.63;0.85;;;;;;;;;;4965932;28;20058;-89
2022/04/01 15:26:16;;;;;;;2.45;0.73;;;;;;;;;;4965811;28;20042;-86
2022/04/01 15:28:42;;;;;;;4.32;0.80;;;;;;;;;;4967118;28;20085;-86
2022/04/01 15:31:09;;;;;;;2.60;0.63;;;;;;;;;;4966237;28;20050;-85
2022/04/01 15:33:37;;;;;;;4.15;1.08;;;;;;;;;;4954310;28;20055;-85
2022/04/01 15:36:05;;;;;;;4.40;0.80;;;;;;;;;;4964530;28;20404;-86
2022/04/01 15:38:37;;;;;;;3.67;1.00;;;;;;;;;;4964184;28;20085;-86
2022/04/01 15:41:09;;;;;;;3.83;0.90;;;;;;;;;;4964389;28;20047;-84
2022/04/01 15:43:36;;;;;;;3.47;0.90;;;;;;;;;;4962745;28;20106;-87
2022/04/01 15:46:07;;;;;;;4.88;0.80;;;;;;;;;;4961133;28;20505;-86
2022/04/01 15:48:37;;;;;;;2.78;0.75;;;;;;;;;;4962848;28;20054;-86
2022/04/01 15:51:06;;;;;;;3.33;0.68;;;;;;;;;;4963423;28;20054;-84
2022/04/01 15:53:33;;;;;;;3.65;0.70;;;;;;;;;;4963077;28;20051;-86
2022/04/01 15:56:00;;;;;;;5.38;0.90;;;;;;;;;;4963571;28;20102;-86
2022/04/01 15:58:27;;;;;;;3.97;0.70;;;;;;;;;;4960849;28;20460;-86
2022/04/01 16:00:55;;;;;;;6.68;1.05;;;;;;;;;;4961315;28;20082;-87
2022/04/01 16:03:25;;;;;;;7.60;0.88;;;;;;;;;;4961137;28;20555;-86
2022/04/01 16:05:54;;;;;;;3.65;0.85;;;;;;;;;;4962701;28;20051;-89
2022/04/01 16:08:24;;;;;;;5.80;0.90;;;;;;;;;;4960192;28;20049;-89
2022/04/01 16:10:51;;;;;;;3.40;0.82;;;;;;;;;;4958619;28;20050;-88
2022/04/01 16:13:28;;;;;;;4.03;0.98;;;;;;;;;;4964641;28;20530;-89
2022/04/01 16:15:55;;;;;;;5.03;0.82;;;;;;;;;;4963197;28;20046;-88
2022/04/01 16:18:22;;;;;;;4.55;0.80;;;;;;;;;;4962749;28;20053;-87
2022/04/01 16:20:54;;;;;;;2.70;0.70;;;;;;;;;;4959167;28;20067;-87
2022/04/01 16:23:25;;;;;;;1.88;0.50;;;;;;;;;;4965804;28;20149;-87
2022/04/01 16:25:53;;;;;;;4.95;0.73;;;;;;;;;;4977072;28;20078;-87
2022/04/01 16:28:20;;;;;;;3.97;0.70;;;;;;;;;;4982308;28;20066;-85
2022/04/01 16:30:47;;;;;;;6.47;0.80;;;;;;;;;;4982853;28;20046;-87
2022/04/01 16:33:14;;;;;;;4.07;0.45;;;;;;;;;;4979825;28;20043;-89
2022/04/01 16:35:42;;;;;;;5.22;0.90;;;;;;;;;;4987042;28;20050;-89
2022/04/01 16:38:10;;;;;;;2.72;0.80;;;;;;;;;;4980926;28;20050;-86
2022/04/01 16:40:37;;;;;;;1.52;0.50;;;;;;;;;;4982836;28;20047;-87
2022/04/01 16:43:04;;;;;;;5.28;0.73;;;;;;;;;;4982024;28;20066;-86
2022/04/01 16:45:31;;;;;;;6.97;0.88;;;;;;;;;;4978623;28;20168;-85
2022/04/01 16:47:57;;;;;;;5.93;0.85;;;;;;;;;;4981648;28;20070;-86
2022/04/01 16:50:27;;;;;;;2.95;0.80;;;;;;;;;;4979501;28;20077;-87
2022/04/01 16:52:54;;;;;;;2.60;0.70;;;;;;;;;;4978054;28;20074;-85
2022/04/01 16:55:21;;;;;;;6.32;0.70;;;;;;;;;;4957294;28;20078;-85
2022/04/01 16:57:48;;;;;;;4.18;1.00;;;;;;;;;;4973864;28;20046;-85
2022/04/01 17:00:15;;;;;;;3.47;0.70;;;;;;;;;;4973861;28;20039;-87
2022/04/01 17:02:42;;;;;;;1.20;0.60;;;;;;;;;;4981047;28;20518;-87
2022/04/01 17:05:09;;;;;;;3.70;0.80;;;;;;;;;;4982179;28;20082;-88
2022/04/01 17:13:25;;;;;;;5.70;0.85;;;;;;;;;;4885017;29;20049;-87
2022/04/01 17:15:53;;;;;;;2.75;0.90;;;;;;;;;;4863718;29;20579;-85
2022/04/01 17:18:20;;;;;;;1.88;0.80;;;;;;;;;;4877823;29;20049;-87
2022/04/01 17:20:48;;;;;;;4.40;1.00;;;;;;;;;;4878460;29;20087;-88
2022/04/01 17:23:16;;;;;;;3.47;0.80;;;;;;;;;;4884105;29;20676;-87
2022/04/01 17:25:44;;;;;;;4.75;0.90;;;;;;;;;;4893007;29;20045;-86
2022/04/01 17:28:12;;;;;;;4.50;0.90;;;;;;;;;;4890190;29;20130;-86
2022/04/01 17:30:39;;;;;;;2.47;0.90;;;;;;;;;;4876231;29;20053;-88
2022/04/01 17:33:07;;;;;;;6.75;1.98;;;;;;;;;;4866067;29;20085;-86
2022/04/01 17:35:36;;;;;;;4.60;2.00;;;;;;;;;;4879491;29;20086;-88
2022/04/01 17:38:07;;;;;;;2.72;0.70;;;;;;;;;;4873254;29;20265;-88
2022/04/01 17:40:36;;;;;;;4.43;0.90;;;;;;;;;;4862451;29;20237;-85
2022/04/01 17:43:04;;;;;;;6.55;1.30;;;;;;;;;;4865624;29;20064;-86
2022/04/01 17:45:30;;;;;;;2.65;0.95;;;;;;;;;;4868348;29;20502;-85
2022/04/01 17:47:59;;;;;;;4.68;1.27;;;;;;;;;;4930198;28;20129;-85
2022/04/01 17:50:33;;;;;;;3.83;1.52;;;;;;;;;;4954569;28;20134;-86
2022/04/01 17:53:04;;;;;;;7.80;2.40;;;;;;;;;;4964872;28;20110;-89
2022/04/01 17:55:36;;;;;;;4.63;0.75;;;;;;;;;;4970110;28;20055;-86
2022/04/01 17:58:09;;;;;;;4.32;0.82;;;;;;;;;;4962160;28;20055;-86
2022/04/01 18:00:36;;;;;;;3.90;0.90;;;;;;;;;;4974058;28;20137;-87
2022/04/01 18:03:07;;;;;;;2.80;1.00;;;;;;;;;;4970010;28;20542;-87
2022/04/01 18:05:35;;;;;;;2.78;1.08;;;;;;;;;;4972103;28;20420;-85
2022/04/01 18:08:03;;;;;;;2.75;1.30;;;;;;;;;;4974358;28;20070;-87
2022/04/01 18:10:31;;;;;;;2.83;0.90;;;;;;;;;;4973046;28;20062;-86
2022/04/01 18:13:00;;;;;;;5.40;2.10;;;;;;;;;;4966599;28;21378;-84
2022/04/01 18:15:26;;;;;;;6.90;1.58;;;;;;;;;;4961214;28;20681;-86
2022/04/01 18:17:56;;;;;;;4.35;2.03;;;;;;;;;;4966096;28;20070;-85
2022/04/01 18:20:23;;;;;;;5.43;1.30;;;;;;;;;;4967332;28;20075;-87
2022/04/01 18:22:49;;;;;;;8.20;1.70;;;;;;;;;;4971065;28;20059;-86
2022/04/01 18:25:16;;;;;;;3.63;1.17;;;;;;;;;;4968489;28;20062;-85
2022/04/01 18:28:00;;;;;;;3.75;1.45;;;;;;;;;;4964648;28;20047;-87
2022/04/01 18:30:35;;;;;;;3.15;1.80;;;;;;;;;;4959549;28;20428;-85
2022/04/01 18:33:08;;;;;;;5.88;2.13;;;;;;;;;;4962562;28;20126;-85
2022/04/01 18:35:42;;;;;;;5.57;2.20;;;;;;;;;;4964384;28;20054;-85
2022/04/01 18:38:15;;;;;;;4.30;2.17;;;;;;;;;;4966798;28;20085;-86
2022/04/01 18:40:44;;;;;;;5.10;2.30;;;;;;;;;;4971582;28;20546;-85
2022/04/01 18:43:13;;;;;;;5.03;3.17;;;;;;;;;;4957409;28;20650;-86
2022/04/01 18:45:41;;;;;;;5.10;2.38;;;;;;;;;;4956442;28;20579;-85
2022/04/01 18:48:08;;;;;;;7.70;2.30;;;;;;;;;;4958921;28;20128;-85
2022/04/01 18:50:41;;;;;;;4.85;1.77;;;;;;;;;;4963571;28;20055;-84
2022/04/01 18:53:08;;;;;;;3.20;1.77;;;;;;;;;;4964320;28;20089;-84
2022/04/01 18:55:37;;;;;;;6.65;2.72;;;;;;;;;;4966913;28;20055;-85
2022/04/01 18:58:05;;;;;;;8.82;2.90;;;;;;;;;;4963457;28;20055;-85
2022/04/01 19:00:32;;;;;;;5.78;2.85;;;;;;;;;;4958440;28;20074;-86
2022/04/01 19:03:28;;;;;;;6.88;1.92;;;;;;;;;;4956059;28;20062;-85
2022/04/01 19:06:03;;;;;;;4.47;1.65;;;;;;;;;;4958275;28;20050;-86
2022/04/01 19:08:36;;;;;;;5.25;1.20;;;;;;;;;;4958131;28;20047;-86
2022/04/01 19:11:10;;;;;;;4.25;1.38;;;;;;;;;;4957773;28;20095;-86
2022/04/01 19:13:39;;;;;;;6.20;1.05;;;;;;;;;;4963581;28;20470;-85
2022/04/01 19:16:10;;;;;;;5.07;1.08;;;;;;;;;;4959547;28;20142;-86
2022/04/01 19:18:45;;;;;;;5.60;1.30;;;;;;;;;;4959930;28;20051;-85
2022/04/01 19:21:19;;;;;;;4.07;1.10;;;;;;;;;;4956423;28;20380;-86
2022/04/01 19:23:48;;;;;;;6.03;1.63;;;;;;;;;;4958029;28;20055;-85
2022/04/01 19:26:16;;;;;;;10.85;1.95;;;;;;;;;;4955613;28;20467;-85
2022/04/01 19:28:43;;;;;;;5.13;1.38;;;;;;;;;;4958637;28;20110;-86
2022/04/01 19:31:10;;;;;;;4.55;1.20;;;;;;;;;;4961557;28;20075;-87
2022/04/01 19:33:37;;;;;;;6.35;1.30;;;;;;;;;;4972754;28;20050;-84
2022/04/01 19:36:06;;;;;;;4.72;1.10;;;;;;;;;;4968852;28;20479;-87
2022/04/01 19:38:33;;;;;;;6.32;1.20;;;;;;;;;;4972142;28;20062;-87
2022/04/01 19:41:00;;;;;;;2.83;1.10;;;;;;;;;;4970987;28;20042;-86
2022/04/01 19:43:27;;;;;;;5.80;1.35;;;;;;;;;;4967984;28;20109;-83
2022/04/01 19:45:54;;;;;;;5.68;1.60;;;;;;;;;;4974947;28;20101;-89
2022/04/01 19:48:21;;;;;;;3.55;1.73;;;;;;;;;;4985871;28;20073;-87
2022/04/01 19:50:47;;;;;;;5.22;1.80;;;;;;;;;;4985032;28;20047;-87
2022/04/01 19:53:14;;;;;;;5.13;1.65;;;;;;;;;;4982098;28;20070;-87
2022/04/01 19:55:41;;;;;;;4.20;1.38;;;;;;;;;;4964579;28;20051;-87
2022/04/01 19:58:08;;;;;;;9.55;1.60;;;;;;;;;;4982277;28;20054;-85
2022/04/01 20:00:35;;;;;;;5.43;1.35;;;;;;;;;;4979890;28;20054;-86
2022/04/01 20:03:02;;;;;;;4.20;1.63;;;;;;;;;;4976465;28;20049;-85
2022/04/01 20:05:30;;;;;;;4.93;1.48;;;;;;;;;;4981266;28;20079;-85
2022/04/01 20:07:57;;;;;;;4.07;1.60;;;;;;;;;;4977878;28;20098;-87
2022/04/01 20:10:24;;;;;;;7.53;1.50;;;;;;;;;;4984313;28;20043;-88
2022/04/01 20:12:50;;;;;;;6.10;2.03;;;;;;;;;;4983964;28;20593;-85
2022/04/01 20:15:17;;;;;;;6.95;1.88;;;;;;;;;;4977596;28;20105;-84
2022/04/01 20:17:45;;;;;;;7.85;1.70;;;;;;;;;;4965983;28;20078;-86
2022/04/01 20:20:23;;;;;;;4.43;2.03;;;;;;;;;;4981025;28;20073;-86
2022/04/01 20:22:49;;;;;;;4.47;2.03;;;;;;;;;;4984413;28;20054;-87
2022/04/01 20:25:19;;;;;;;8.27;2.20;;;;;;;;;;4983115;28;20042;-86
2022/04/01 20:27:48;;;;;;;4.97;1.52;;;;;;;;;;4976232;28;20130;-85
2022/04/01 20:30:14;;;;;;;6.65;2.03;;;;;;;;;;4975123;28;20475;-87
2022/04/01 20:32:41;;;;;;;6.93;2.33;;;;;;;;;;4956481;28;20082;-86
2022/04/01 20:35:08;;;;;;;6.30;2.20;;;;;;;;;;4973260;28;20055;-85
2022/04/01 20:37:35;;;;;;;7.97;2.58;;;;;;;;;;4970712;28;20074;-84
2022/04/01 20:40:03;;;;;;;6.55;2.30;;;;;;;;;;4965072;28;20097;-84
2022/04/01 20:42:30;;;;;;;6.90;2.58;;;;;;;;;;4968228;28;20074;-86
2022/04/01 20:44:59;;;;;;;7.97;2.90;;;;;;;;;;4971824;28;24011;-85
2022/04/01 20:47:28;;;;;;;7.65;2.83;;;;;;;;;;4972116;28;20077;-85
2022/04/01 20:49:55;;;;;;;4.78;2.70;;;;;;;;;;4972704;28;20082;-86
2022/04/01 20:52:23;;;;;;;7.53;2.47;;;;;;;;;;4968065;28;20046;-86
2022/04/01 20:54:52;;;;;;;7.80;2.80;;;;;;;;;;4968913;28;20051;-86
2022/04/01 20:57:19;;;;;;;6.43;2.65;;;;;;;;;;4974680;28;20081;-86
2022/04/01 20:59:46;;;;;;;5.57;3.42;;;;;;;;;;4980922;28;20050;-86
2022/04/01 21:02:12;;;;;;;8.20;2.90;;;;;;;;;;4971200;28;20325;-87